CDT,Max TemperatureF,Mean TemperatureF,Min TemperatureF,Max Dew PointF,MeanDew PointF,Min DewpointF,Max Humidity, Mean Humidity, Min Humidity, Max Sea Level PressureIn, Mean Sea Level PressureIn, Min Sea Level PressureIn, Max VisibilityMiles, Mean VisibilityMiles, Min VisibilityMiles, Max Wind SpeedMPH, Mean Wind SpeedMPH, Max Gust SpeedMPH,PrecipitationIn, CloudCover, Events, WindDirDegrees
2012-10-1,64,56,48,48,46,44,93,71,48,29.89,29.83,29.78,10,10,10,16,9,,0.00,1,,29
2012-10-2,65,60,54,57,52,46,93,73,52,29.89,29.84,29.76,10,8,4,23,9,26,0.03,7,Rain,11
2012-10-3,73,65,56,58,55,51,100,75,49,30.07,29.95,29.87,10,6,2,13,5,17,0.17,7,Rain,274
2012-10-4,81,66,51,59,54,48,93,68,42,30.19,30.11,30.05,10,10,10,22,12,29,T,4,,243
2012-10-5,51,45,39,47,42,35,93,85,76,30.24,30.19,30.15,10,10,2,18,9,24,0.65,7,Rain-Thunderstorm,329
2012-10-6,50,43,35,35,32,31,89,70,50,30.25,30.21,30.17,10,10,10,18,9,23,0.00,0,,305
2012-10-7,52,42,32,34,30,26,82,61,39,30.27,30.22,30.19,10,10,10,14,6,21,0.00,3,,295
2012-10-8,58,44,30,36,32,27,92,66,40,30.23,30.16,30.09,10,10,10,21,8,28,0.00,0,,202
2012-10-9,64,53,41,45,42,36,86,65,44,30.08,30.00,29.91,10,10,10,23,14,30,0.01,2,Rain,208
2012-10-10,54,46,37,45,36,30,100,71,41,30.25,30.15,30.01,10,10,8,20,9,28,0.01,2,Rain,293
2012-10-11,64,50,35,42,36,30,89,64,39,30.26,30.21,30.14,10,10,10,21,10,26,0.00,0,,207
2012-10-12,62,53,43,43,41,37,86,66,46,30.40,30.32,30.22,10,10,9,24,10,28,0.00,1,,70
2012-10-13,71,60,49,65,56,43,100,89,77,30.25,30.05,29.87,10,8,3,26,13,36,0.32,5,Rain,181
2012-10-14,74,63,51,64,59,46,93,77,61,29.89,29.72,29.59,10,10,3,37,18,51,0.37,7,Rain,220
2012-10-15,63,53,43,47,44,41,100,74,48,30.01,29.96,29.90,10,10,10,15,6,23,0.00,1,,295
2012-10-16,73,57,41,55,49,40,89,71,53,29.97,29.78,29.62,10,10,10,23,12,31,0.00,0,,175
2012-10-17,66,60,53,61,56,50,93,80,67,29.64,29.49,29.34,10,9,2,23,15,29,0.38,5,Rain-Thunderstorm,202
2012-10-18,59,53,46,49,40,34,86,63,40,29.60,29.54,29.50,10,10,10,29,15,37,0.04,4,Rain,235
2012-10-19,52,49,46,47,45,43,100,86,71,29.73,29.59,29.48,10,9,4,20,12,31,0.05,8,Rain,250
2012-10-20,56,48,40,47,44,41,96,79,61,29.96,29.86,29.75,10,10,6,15,6,21,0.00,6,,268
2012-10-21,71,55,38,61,51,39,100,79,57,30.01,29.98,29.94,10,10,8,15,8,17,0.00,2,,141
2012-10-22,70,65,60,64,60,54,100,84,67,30.04,29.96,29.91,10,9,1,20,12,29,0.88,4,Rain-Thunderstorm,180
2012-10-23,71,66,61,63,60,55,87,80,73,29.97,29.93,29.90,10,9,2,21,12,25,0.34,5,Rain-Thunderstorm,190
2012-10-24,79,69,59,67,62,57,93,80,67,29.99,29.94,29.89,10,10,10,21,12,26,0.00,2,,190
2012-10-25,79,62,44,64,55,42,100,79,58,30.12,29.90,29.77,10,10,6,30,17,38,0.33,4,Rain,231
2012-10-26,49,44,39,37,34,32,83,72,60,30.33,30.28,30.17,10,10,10,25,15,32,0.00,4,,357
2012-10-27,50,42,33,36,32,30,89,71,53,30.33,30.28,30.23,10,10,10,20,12,24,0.00,0,,358
2012-10-28,49,42,34,36,32,30,89,73,56,30.27,30.25,30.23,10,10,10,16,11,22,0.00,2,,8
2012-10-29,53,44,34,39,31,26,96,69,41,30.30,30.22,30.09,10,10,10,22,14,26,0.00,0,,348
2012-10-30,51,44,36,28,26,23,70,53,36,30.06,29.91,29.83,10,10,10,26,17,46,0.00,1,,328
2012-10-31,50,41,32,32,26,21,78,58,37,29.94,29.91,29.86,10,10,10,20,12,25,0.00,0,,306